Time;durP1;ratioP1;P1;durP2;ratioP2;P2;SDS_P1;SDS_P2;PMS_P1;PMS_P2;Temp;Humidity;BMP_temperature;BMP_pressure;BME280_temperature;BME280_humidity;BME280_pressure;Samples;Min_cycle;Max_cycle;Signal;HPM_P1;HPM_P2
2023/08/08 00:00:21;;;;;;;7.57;6.57;;;20.80;97.60;;;;;;5063076;28;20169;-87
2023/08/08 00:02:47;;;;;;;8.18;6.55;;;20.80;97.50;;;;;;5079359;28;20161;-87
2023/08/08 00:05:16;;;;;;;8.68;6.75;;;20.80;97.50;;;;;;5079280;28;20240;-89
2023/08/08 00:07:46;;;;;;;8.13;6.90;;;20.90;97.50;;;;;;5061917;28;20521;-88
2023/08/08 00:10:12;;;;;;;8.50;6.70;;;20.90;97.50;;;;;;5061954;28;20581;-89
2023/08/08 00:12:38;;;;;;;8.43;7.07;;;20.80;97.50;;;;;;5062308;28;20220;-90
2023/08/08 00:15:05;;;;;;;7.65;6.85;;;20.80;97.60;;;;;;5079431;28;20171;-87
2023/08/08 00:17:31;;;;;;;8.18;6.93;;;20.80;97.50;;;;;;5079225;28;20218;-90
2023/08/08 00:19:58;;;;;;;7.80;6.72;;;20.90;97.60;;;;;;5079390;28;20630;-88
2023/08/08 00:22:28;;;;;;;8.80;7.35;;;20.80;97.70;;;;;;5079381;28;20185;-90
2023/08/08 00:24:58;;;;;;;8.73;7.25;;;20.80;97.60;;;;;;5045399;28;20177;-89
2023/08/08 00:27:29;;;;;;;9.00;7.05;;;20.80;97.60;;;;;;5062105;28;20575;-90
2023/08/08 00:29:59;;;;;;;8.45;7.30;;;20.80;97.60;;;;;;5061749;28;20177;-88
2023/08/08 00:32:25;;;;;;;9.18;7.10;;;20.80;97.70;;;;;;5045232;28;20181;-90
2023/08/08 00:34:51;;;;;;;8.45;7.25;;;20.80;97.60;;;;;;5062723;28;20165;-90
2023/08/08 00:37:21;;;;;;;8.70;7.38;;;20.80;97.60;;;;;;5076309;28;20674;-87
2023/08/08 00:39:47;;;;;;;7.85;6.68;;;20.80;97.70;;;;;;5059060;28;20205;-88
2023/08/08 00:42:17;;;;;;;8.45;6.88;;;20.70;97.60;;;;;;5059188;28;20690;-89
2023/08/08 00:44:48;;;;;;;7.88;6.40;;;20.70;97.50;;;;;;5075370;28;20643;-90
2023/08/08 00:47:14;;;;;;;8.30;7.03;;;20.80;97.50;;;;;;5058429;28;20539;-90
2023/08/08 00:49:46;;;;;;;9.93;7.40;;;20.80;97.60;;;;;;5059479;28;20187;-88
2023/08/08 00:52:12;;;;;;;8.63;7.32;;;20.70;97.50;;;;;;5042355;28;20270;-89
2023/08/08 00:54:38;;;;;;;8.48;6.97;;;20.70;97.60;;;;;;5075517;28;20154;-88
2023/08/08 00:57:07;;;;;;;9.40;7.28;;;20.80;97.70;;;;;;5075496;28;20154;-89
2023/08/08 00:59:33;;;;;;;8.05;6.93;;;20.80;97.60;;;;;;5058153;28;20643;-90
2023/08/08 01:02:00;;;;;;;8.70;6.80;;;20.70;97.60;;;;;;5075296;28;20721;-90
2023/08/08 01:04:30;;;;;;;8.45;6.97;;;20.80;97.70;;;;;;5058504;28;20252;-90
2023/08/08 01:07:22;;;;;;;8.80;7.00;;;20.80;97.60;;;;;;5058055;28;20223;-91
2023/08/08 01:10:06;;;;;;;8.43;7.00;;;20.80;97.60;;;;;;5075388;28;20240;-88
2023/08/08 01:12:35;;;;;;;8.80;6.95;;;20.70;97.60;;;;;;5074982;28;20220;-87
2023/08/08 01:15:01;;;;;;;8.77;7.07;;;20.70;97.60;;;;;;5075303;28;20635;-89
2023/08/08 01:17:31;;;;;;;7.57;6.45;;;20.70;97.60;;;;;;5074700;28;20174;-88
2023/08/08 01:19:57;;;;;;;7.50;6.10;;;20.70;97.50;;;;;;5057557;28;20185;-87
2023/08/08 01:22:25;;;;;;;7.97;6.93;;;20.70;97.60;;;;;;5057816;28;20262;-89
2023/08/08 01:24:52;;;;;;;8.75;7.07;;;20.70;97.60;;;;;;5075092;28;20160;-90
2023/08/08 01:27:17;;;;;;;8.77;7.03;;;20.80;97.60;;;;;;5074961;28;20513;-88
2023/08/08 01:29:43;;;;;;;8.13;6.90;;;20.70;97.60;;;;;;5075244;28;20161;-87
2023/08/08 01:32:14;;;;;;;8.45;6.90;;;20.70;97.60;;;;;;5074565;28;20717;-87
2023/08/08 01:34:40;;;;;;;7.40;6.45;;;20.70;97.50;;;;;;5057534;28;20186;-87
2023/08/08 01:37:14;;;;;;;8.32;6.97;;;20.70;97.50;;;;;;5074563;28;20628;-90
2023/08/08 01:39:40;;;;;;;8.90;7.18;;;20.80;97.60;;;;;;5057778;28;20260;-89
2023/08/08 01:42:06;;;;;;;8.25;7.03;;;20.70;97.50;;;;;;5074425;28;20314;-87
2023/08/08 01:44:39;;;;;;;8.43;6.97;;;20.70;97.60;;;;;;5058011;28;20188;-88
2023/08/08 01:47:09;;;;;;;8.65;7.20;;;20.60;97.50;;;;;;5057406;28;20192;-87
2023/08/08 01:49:40;;;;;;;7.47;6.60;;;20.70;97.60;;;;;;5024014;28;20581;-88
2023/08/08 01:52:10;;;;;;;8.50;6.88;;;20.70;97.50;;;;;;5040278;28;20687;-88
2023/08/08 01:54:36;;;;;;;7.95;6.85;;;20.70;97.50;;;;;;5057438;28;20185;-88
2023/08/08 01:57:02;;;;;;;7.60;6.40;;;20.70;97.60;;;;;;5057532;28;20180;-87
2023/08/08 01:59:28;;;;;;;7.80;6.50;;;20.70;97.50;;;;;;5057850;28;20636;-90
2023/08/08 02:01:58;;;;;;;8.43;6.90;;;20.70;97.50;;;;;;5057426;28;20289;-90
2023/08/08 02:04:27;;;;;;;7.63;6.82;;;20.70;97.50;;;;;;5040446;28;20713;-87
2023/08/08 02:06:53;;;;;;;8.45;7.00;;;20.70;97.50;;;;;;5040267;28;20189;-90
2023/08/08 02:09:23;;;;;;;7.65;6.85;;;20.70;97.50;;;;;;5075421;28;20520;-89
2023/08/08 02:11:49;;;;;;;8.18;6.88;;;20.70;97.60;;;;;;5073109;28;20267;-88
2023/08/08 02:14:15;;;;;;;8.05;6.78;;;20.70;97.60;;;;;;5073947;28;20544;-90
2023/08/08 02:16:42;;;;;;;7.22;6.35;;;20.60;97.50;;;;;;5058470;28;20195;-89
2023/08/08 02:19:08;;;;;;;8.38;6.97;;;20.70;97.50;;;;;;5074014;28;20157;-86
2023/08/08 02:21:33;;;;;;;7.80;6.85;;;20.70;97.60;;;;;;5074805;28;20185;-90
2023/08/08 02:24:03;;;;;;;8.60;6.90;;;20.70;97.60;;;;;;5075086;28;20154;-88
2023/08/08 02:26:29;;;;;;;8.25;6.85;;;20.60;97.60;;;;;;5056502;28;20260;-89
2023/08/08 02:28:59;;;;;;;8.63;6.68;;;20.70;97.60;;;;;;5057454;28;20565;-89
2023/08/08 02:31:29;;;;;;;8.05;6.60;;;20.60;97.50;;;;;;5039916;28;20652;-89
2023/08/08 02:33:55;;;;;;;7.72;6.70;;;20.60;97.90;;;;;;5056516;28;20189;-89
2023/08/08 02:36:26;;;;;;;8.23;6.93;;;20.70;97.60;;;;;;5074843;28;20164;-87
2023/08/08 02:38:53;;;;;;;8.30;6.88;;;20.70;97.50;;;;;;5056227;28;20180;-90
2023/08/08 02:41:20;;;;;;;7.40;6.50;;;20.60;97.50;;;;;;5073886;28;20212;-87
2023/08/08 02:43:46;;;;;;;8.43;6.85;;;20.60;97.50;;;;;;5075331;28;20536;-89
2023/08/08 02:46:12;;;;;;;7.88;6.57;;;20.60;97.50;;;;;;5073461;28;20166;-88
2023/08/08 02:48:43;;;;;;;8.23;7.00;;;20.60;97.50;;;;;;5056806;28;20272;-89
2023/08/08 02:51:09;;;;;;;7.68;6.25;;;20.70;97.50;;;;;;5040335;28;20189;-89
2023/08/08 02:53:35;;;;;;;8.23;6.68;;;20.60;97.50;;;;;;5074675;28;20151;-90
2023/08/08 02:56:05;;;;;;;7.28;6.00;;;20.60;97.50;;;;;;5057172;28;20240;-90
2023/08/08 02:58:31;;;;;;;8.15;6.88;;;20.60;97.40;;;;;;5056084;28;20185;-88
2023/08/08 03:01:01;;;;;;;8.13;6.55;;;20.70;97.50;;;;;;5056253;28;20197;-89
2023/08/08 03:03:28;;;;;;;8.23;6.90;;;20.60;97.50;;;;;;5039507;28;20212;-89
2023/08/08 03:05:54;;;;;;;7.68;6.57;;;20.60;97.50;;;;;;5073153;28;20489;-87
2023/08/08 03:08:20;;;;;;;7.78;6.72;;;20.60;97.40;;;;;;5056286;28;20183;-89
2023/08/08 03:10:46;;;;;;;7.90;6.68;;;20.60;97.50;;;;;;5056365;28;20223;-90
2023/08/08 03:13:12;;;;;;;8.13;6.90;;;20.60;97.50;;;;;;5056598;28;20579;-88
2023/08/08 03:15:37;;;;;;;9.45;7.07;;;20.60;97.40;;;;;;5056465;28;20625;-88
2023/08/08 03:18:08;;;;;;;7.60;6.35;;;20.50;97.40;;;;;;5073283;28;20186;-87
2023/08/08 03:20:34;;;;;;;8.18;6.85;;;20.60;97.40;;;;;;5038834;28;20181;-89
2023/08/08 03:23:00;;;;;;;7.68;6.35;;;20.60;97.30;;;;;;5056734;28;20256;-91
2023/08/08 03:25:26;;;;;;;7.30;6.35;;;20.60;97.30;;;;;;5072706;28;20282;-87
2023/08/08 03:27:52;;;;;;;7.00;6.10;;;20.60;97.20;;;;;;5056331;28;20176;-88
2023/08/08 03:30:18;;;;;;;8.70;6.72;;;20.60;97.30;;;;;;5056365;28;20161;-88
2023/08/08 03:32:48;;;;;;;8.38;6.80;;;20.60;97.30;;;;;;5055985;28;20562;-88
2023/08/08 03:35:17;;;;;;;6.97;6.20;;;20.60;97.30;;;;;;5055584;28;20208;-89
2023/08/08 03:37:44;;;;;;;8.52;6.53;;;20.70;97.40;;;;;;5038809;28;20173;-87
2023/08/08 03:40:14;;;;;;;7.95;6.47;;;20.50;97.40;;;;;;5074057;28;20211;-88
2023/08/08 03:42:45;;;;;;;8.07;6.55;;;20.60;97.40;;;;;;5039326;28;20221;-89
2023/08/08 03:45:11;;;;;;;7.47;6.32;;;20.50;97.40;;;;;;5055714;28;20575;-88
2023/08/08 03:47:37;;;;;;;8.32;6.60;;;20.60;97.40;;;;;;5072645;28;20218;-89
2023/08/08 03:50:04;;;;;;;8.70;6.72;;;20.60;97.40;;;;;;5072717;28;20154;-87
2023/08/08 03:52:31;;;;;;;7.68;6.53;;;20.60;97.40;;;;;;5057097;28;20165;-89
2023/08/08 03:54:56;;;;;;;7.93;6.68;;;20.60;97.40;;;;;;5055490;28;20173;-89
2023/08/08 03:57:22;;;;;;;7.80;6.60;;;20.50;97.40;;;;;;5071844;28;20235;-89
2023/08/08 03:59:48;;;;;;;7.70;6.55;;;20.60;97.40;;;;;;5072952;28;20154;-88
2023/08/08 04:02:14;;;;;;;8.13;6.28;;;20.60;97.20;;;;;;5072874;28;20591;-90
2023/08/08 04:04:40;;;;;;;7.05;6.15;;;20.60;97.30;;;;;;5071777;28;20184;-88
2023/08/08 04:07:06;;;;;;;7.28;6.30;;;20.60;97.30;;;;;;5055017;28;20604;-87
2023/08/08 04:09:32;;;;;;;8.80;6.82;;;20.60;97.30;;;;;;5072380;28;20158;-89
2023/08/08 04:11:58;;;;;;;8.23;6.53;;;20.60;97.30;;;;;;5056212;28;20717;-87
2023/08/08 04:14:29;;;;;;;8.50;6.70;;;20.60;97.30;;;;;;5076074;28;20197;-89
2023/08/08 04:16:55;;;;;;;8.75;6.60;;;20.60;97.30;;;;;;5042061;28;20239;-88
2023/08/08 04:19:21;;;;;;;7.30;6.40;;;20.60;97.70;;;;;;5059150;28;20577;-89
2023/08/08 04:21:51;;;;;;;7.50;6.70;;;20.60;97.40;;;;;;5076147;28;20241;-89
2023/08/08 04:24:17;;;;;;;8.02;6.22;;;20.60;97.40;;;;;;5041890;28;20181;-90
2023/08/08 04:26:43;;;;;;;7.25;6.25;;;20.60;97.40;;;;;;5075959;28;20236;-90
2023/08/08 04:29:09;;;;;;;7.50;6.45;;;20.60;97.30;;;;;;5077140;28;20677;-87
2023/08/08 04:31:39;;;;;;;7.38;6.30;;;20.60;97.30;;;;;;5076105;28;20158;-88
2023/08/08 04:34:09;;;;;;;7.30;6.35;;;20.50;97.30;;;;;;5041837;28;20177;-88
2023/08/08 04:36:39;;;;;;;7.65;6.47;;;20.60;97.40;;;;;;5058302;28;20659;-87
2023/08/08 04:39:09;;;;;;;8.02;6.47;;;20.60;97.20;;;;;;5058448;28;20652;-89
2023/08/08 04:41:34;;;;;;;7.82;6.75;;;20.50;97.30;;;;;;5058228;28;20300;-91
2023/08/08 04:44:01;;;;;;;6.95;6.03;;;20.60;97.30;;;;;;5076020;28;20238;-90
2023/08/08 04:46:31;;;;;;;7.10;6.18;;;20.60;97.40;;;;;;5075723;28;20154;-87
2023/08/08 04:48:57;;;;;;;7.38;6.38;;;20.50;97.40;;;;;;5058120;28;20180;-88
2023/08/08 04:51:23;;;;;;;7.85;6.35;;;20.50;97.30;;;;;;5075261;28;20253;-88
2023/08/08 04:53:49;;;;;;;7.63;6.30;;;20.60;97.30;;;;;;5075634;28;20592;-88
2023/08/08 04:56:15;;;;;;;7.72;6.32;;;20.50;97.40;;;;;;5075294;28;20153;-89
2023/08/08 04:58:45;;;;;;;7.70;6.18;;;20.50;97.40;;;;;;5076788;28;20154;-90
2023/08/08 05:01:17;;;;;;;7.63;6.28;;;20.50;97.40;;;;;;5041499;28;20223;-87
2023/08/08 05:03:43;;;;;;;7.20;6.25;;;20.50;97.40;;;;;;5041745;28;20189;-90
2023/08/08 05:06:09;;;;;;;7.93;6.60;;;20.50;97.40;;;;;;5058898;28;20631;-87
2023/08/08 05:08:39;;;;;;;8.07;6.45;;;20.50;97.30;;;;;;5074873;28;20146;-90
2023/08/08 05:11:04;;;;;;;7.95;6.47;;;20.50;97.30;;;;;;5057704;28;20209;-87
2023/08/08 05:13:31;;;;;;;8.30;6.80;;;20.50;97.30;;;;;;5057997;28;20177;-88
2023/08/08 05:15:56;;;;;;;8.10;6.13;;;20.60;97.40;;;;;;5074970;28;20617;-89
2023/08/08 05:18:26;;;;;;;8.40;6.30;;;20.60;97.30;;;;;;5074868;28;20172;-90
2023/08/08 05:20:52;;;;;;;7.95;6.22;;;20.50;97.40;;;;;;5057273;28;20209;-89
2023/08/08 05:23:19;;;;;;;7.88;6.00;;;20.50;97.40;;;;;;5058254;28;20170;-87
2023/08/08 05:25:48;;;;;;;8.13;6.03;;;20.60;97.40;;;;;;5074900;28;20213;-90
2023/08/08 05:28:14;;;;;;;7.18;5.97;;;20.50;97.30;;;;;;5057654;28;20181;-87
2023/08/08 05:30:40;;;;;;;7.30;6.30;;;20.50;97.40;;;;;;5075022;28;20208;-90
2023/08/08 05:33:06;;;;;;;7.20;6.10;;;20.60;97.40;;;;;;5058688;28;20643;-88
2023/08/08 05:35:32;;;;;;;7.40;6.15;;;20.50;97.40;;;;;;5058482;28;20158;-90
2023/08/08 05:37:58;;;;;;;6.55;5.80;;;20.50;97.20;;;;;;5058053;28;20166;-88
2023/08/08 05:40:28;;;;;;;6.90;6.18;;;20.50;97.30;;;;;;5075506;28;20608;-90
2023/08/08 05:42:58;;;;;;;7.43;6.00;;;20.50;97.10;;;;;;5057361;28;20201;-87
2023/08/08 05:45:28;;;;;;;6.15;5.13;;;20.50;96.90;;;;;;5058051;28;20272;-88
2023/08/08 05:47:55;;;;;;;5.85;5.03;;;20.50;95.90;;;;;;5040662;28;20176;-87
2023/08/08 05:50:26;;;;;;;5.00;4.50;;;20.60;95.80;;;;;;5057598;28;20631;-89
2023/08/08 05:52:52;;;;;;;5.60;4.43;;;20.50;95.40;;;;;;5057435;28;20185;-88
2023/08/08 05:55:22;;;;;;;5.32;4.10;;;20.50;95.30;;;;;;5074260;28;20232;-90
2023/08/08 05:57:51;;;;;;;4.60;3.80;;;20.50;95.30;;;;;;5057167;28;20185;-88
2023/08/08 06:00:21;;;;;;;5.65;4.00;;;20.50;95.30;;;;;;5074081;28;20217;-89
2023/08/08 06:02:51;;;;;;;4.05;3.55;;;20.50;95.40;;;;;;5042095;28;20209;-90
2023/08/08 06:05:17;;;;;;;4.72;3.95;;;20.40;95.20;;;;;;5042156;28;20540;-86
2023/08/08 06:07:43;;;;;;;4.30;3.80;;;20.40;95.40;;;;;;5076855;28;20160;-88
2023/08/08 06:10:15;;;;;;;4.32;3.22;;;20.40;95.50;;;;;;5075312;28;20145;-88
2023/08/08 06:12:41;;;;;;;3.97;3.13;;;20.40;95.20;;;;;;5041186;28;20254;-88
2023/08/08 06:15:08;;;;;;;3.95;3.50;;;20.30;95.30;;;;;;5109581;28;20162;-88
2023/08/08 06:17:34;;;;;;;3.85;3.30;;;20.30;95.20;;;;;;5057734;28;20162;-88
2023/08/08 06:20:06;;;;;;;4.03;3.53;;;20.40;95.20;;;;;;5075350;28;20158;-88
2023/08/08 06:22:32;;;;;;;4.18;3.50;;;20.40;95.30;;;;;;5075678;28;20181;-87
2023/08/08 06:24:58;;;;;;;4.10;3.25;;;20.40;95.40;;;;;;5075782;28;20211;-87
2023/08/08 06:27:28;;;;;;;3.30;3.00;;;20.40;95.40;;;;;;5075641;28;20165;-88
2023/08/08 06:29:55;;;;;;;3.83;3.05;;;20.30;95.30;;;;;;5041215;28;20187;-90
2023/08/08 06:32:24;;;;;;;3.50;3.15;;;20.30;95.50;;;;;;5058274;28;20195;-89
2023/08/08 06:35:00;;;;;;;3.92;3.50;;;20.30;95.60;;;;;;5073485;28;20212;-89
2023/08/08 06:37:26;;;;;;;4.57;3.00;;;20.30;95.20;;;;;;5074146;28;20145;-89
2023/08/08 06:39:52;;;;;;;3.00;2.70;;;20.30;95.10;;;;;;5057230;28;20173;-90
2023/08/08 06:42:23;;;;;;;3.50;2.97;;;20.30;95.10;;;;;;5075841;28;20323;-90
2023/08/08 06:44:49;;;;;;;3.80;3.17;;;20.30;95.00;;;;;;5059095;28;20186;-89
2023/08/08 06:47:19;;;;;;;3.13;2.83;;;20.30;95.10;;;;;;5075652;28;20268;-89
2023/08/08 06:49:47;;;;;;;3.60;3.00;;;20.30;95.10;;;;;;5075987;28;20182;-89
2023/08/08 06:52:24;;;;;;;3.72;3.13;;;20.30;95.10;;;;;;5073360;28;20258;-88
2023/08/08 06:54:53;;;;;;;3.25;2.80;;;20.20;95.10;;;;;;5073499;28;20173;-89
2023/08/08 06:57:19;;;;;;;3.05;2.60;;;20.30;95.10;;;;;;5089556;28;20181;-89
2023/08/08 06:59:52;;;;;;;3.78;2.72;;;20.30;95.10;;;;;;5072205;28;20178;-88
2023/08/08 07:02:25;;;;;;;3.28;2.65;;;20.30;95.10;;;;;;5092768;28;20215;-88
2023/08/08 07:04:54;;;;;;;3.90;2.85;;;20.20;95.00;;;;;;5043243;28;20184;-89
2023/08/08 07:07:20;;;;;;;2.90;2.60;;;20.20;95.20;;;;;;5059150;28;20176;-89
2023/08/08 07:09:51;;;;;;;2.85;2.55;;;20.20;95.10;;;;;;5075988;28;20654;-88
2023/08/08 07:12:19;;;;;;;3.00;2.60;;;20.30;95.30;;;;;;5041772;28;20220;-88
2023/08/08 07:14:45;;;;;;;3.03;2.38;;;20.20;95.20;;;;;;5058231;28;20164;-89
2023/08/08 07:17:15;;;;;;;2.90;2.40;;;20.20;95.20;;;;;;5075840;28;20180;-90
2023/08/08 07:19:43;;;;;;;2.70;2.45;;;20.20;95.10;;;;;;5095408;28;20240;-88
2023/08/08 07:22:09;;;;;;;2.70;2.30;;;20.20;95.10;;;;;;5095831;28;20219;-89
2023/08/08 07:24:38;;;;;;;2.95;2.38;;;20.20;95.10;;;;;;5096448;28;20623;-88
2023/08/08 07:27:37;;;;;;;2.95;2.65;;;20.20;95.00;;;;;;5080207;28;20272;-89
2023/08/08 07:30:04;;;;;;;3.03;2.72;;;20.30;95.00;;;;;;5072912;28;20181;-88
2023/08/08 07:32:30;;;;;;;3.28;2.70;;;20.20;95.00;;;;;;5057583;28;20193;-88
2023/08/08 07:35:04;;;;;;;2.55;2.22;;;20.20;95.00;;;;;;4994765;28;20171;-90
2023/08/08 07:37:30;;;;;;;3.08;2.47;;;20.20;95.10;;;;;;5010421;28;20174;-89
2023/08/08 07:39:56;;;;;;;3.10;2.60;;;20.20;95.20;;;;;;5028588;28;20254;-90
2023/08/08 07:42:25;;;;;;;4.50;2.70;;;20.20;95.20;;;;;;5028407;28;20656;-91
2023/08/08 07:44:51;;;;;;;3.08;2.58;;;20.10;95.10;;;;;;5013780;28;20187;-89
2023/08/08 07:47:17;;;;;;;4.47;2.20;;;20.20;95.00;;;;;;5015004;28;20163;-90
2023/08/08 07:49:45;;;;;;;2.80;2.47;;;20.20;95.10;;;;;;5000416;28;20189;-89
2023/08/08 07:52:14;;;;;;;3.45;2.50;;;20.20;95.00;;;;;;5016784;28;20170;-89
2023/08/08 07:54:46;;;;;;;2.33;1.98;;;20.20;94.90;;;;;;5036450;28;20220;-90
2023/08/08 07:57:20;;;;;;;2.97;2.15;;;20.20;94.90;;;;;;5003346;28;20277;-90
2023/08/08 07:59:46;;;;;;;2.38;2.03;;;20.20;94.80;;;;;;5006381;28;20229;-89
2023/08/08 08:02:17;;;;;;;2.17;1.92;;;20.20;94.80;;;;;;5020191;28;20210;-89
2023/08/08 08:05:13;;;;;;;2.20;2.00;;;20.20;94.80;;;;;;5020563;28;20205;-90
2023/08/08 08:07:48;;;;;;;2.40;1.90;;;20.30;94.80;;;;;;4983229;28;20187;-89
2023/08/08 08:10:20;;;;;;;2.08;1.88;;;20.20;94.80;;;;;;4996078;28;20181;-89
2023/08/08 08:12:49;;;;;;;2.20;2.00;;;20.20;94.80;;;;;;4995901;28;20222;-89
2023/08/08 08:15:23;;;;;;;2.15;1.95;;;20.20;94.90;;;;;;4980771;28;20206;-91
2023/08/08 08:18:13;;;;;;;1.90;1.70;;;20.20;94.80;;;;;;4980444;28;20658;-89
2023/08/08 08:20:57;;;;;;;2.33;2.10;;;20.30;95.00;;;;;;4974599;28;20642;-90
2023/08/08 08:23:31;;;;;;;2.78;2.00;;;20.30;94.90;;;;;;4957747;28;20184;-89
2023/08/08 08:26:07;;;;;;;2.45;2.20;;;20.30;95.00;;;;;;4982050;28;20708;-89
2023/08/08 08:28:36;;;;;;;2.25;1.95;;;20.30;95.00;;;;;;4977694;28;20184;-90
2023/08/08 08:31:31;;;;;;;2.42;2.22;;;20.30;95.10;;;;;;4961093;28;20184;-89
2023/08/08 08:34:41;;;;;;;4.15;2.08;;;20.30;95.10;;;;;;4957326;28;20435;-89
2023/08/08 08:37:10;;;;;;;2.53;1.90;;;20.20;95.10;;;;;;4993868;28;20348;-89
2023/08/08 08:39:38;;;;;;;3.90;2.08;;;20.30;95.20;;;;;;4927561;28;20191;-90
2023/08/08 08:42:28;;;;;;;4.95;1.95;;;20.20;95.20;;;;;;4943876;28;20664;-89
2023/08/08 08:44:57;;;;;;;4.10;2.03;;;20.30;95.10;;;;;;4949098;28;20195;-89
2023/08/08 08:47:32;;;;;;;3.60;2.00;;;20.30;95.10;;;;;;4982157;28;20216;-89
2023/08/08 08:50:28;;;;;;;4.78;2.13;;;20.30;95.10;;;;;;4949040;28;20215;-90
2023/08/08 08:56:22;;;;;;;6.22;2.83;;;20.30;95.00;;;;;;4956943;28;20595;-90
2023/08/08 08:59:00;;;;;;;9.00;1.77;;;20.30;95.00;;;;;;4962909;28;20286;-90
2023/08/08 09:01:39;;;;;;;6.90;2.40;;;20.30;95.00;;;;;;4995677;28;20797;-89
2023/08/08 09:04:25;;;;;;;5.18;2.10;;;20.30;95.00;;;;;;4976374;28;20188;-90
2023/08/08 09:07:06;;;;;;;8.82;2.30;;;20.30;94.90;;;;;;4975602;28;20698;-90
2023/08/08 09:10:15;;;;;;;4.05;1.80;;;20.30;94.90;;;;;;4940544;29;20185;-91
2023/08/08 09:13:02;;;;;;;5.63;2.00;;;20.40;94.80;;;;;;4864286;29;20238;-90
2023/08/08 09:15:36;;;;;;;5.80;1.95;;;20.30;94.90;;;;;;4882417;29;20270;-89
2023/08/08 09:18:17;;;;;;;3.90;2.13;;;20.30;95.00;;;;;;4881413;29;20691;-90
2023/08/08 09:21:11;;;;;;;3.42;2.08;;;20.30;94.90;;;;;;4856401;29;20659;-89
2023/08/08 09:23:41;;;;;;;6.97;1.88;;;20.40;95.00;;;;;;4854312;29;20196;-90
2023/08/08 09:26:09;;;;;;;6.88;2.05;;;20.30;94.90;;;;;;4861199;29;20542;-89
2023/08/08 09:28:39;;;;;;;7.65;2.10;;;20.40;95.00;;;;;;4830282;29;20173;-89
2023/08/08 09:31:08;;;;;;;7.35;2.05;;;20.40;95.00;;;;;;4815022;29;20280;-89
2023/08/08 09:33:53;;;;;;;;;;;;;;;;;;;;;
2023/08/08 09:36:35;;;;;;;3.78;1.65;;;20.40;95.00;;;;;;4850218;29;20731;-90
2023/08/08 09:39:01;;;;;;;5.78;1.85;;;20.40;95.00;;;;;;4861991;29;20204;-90
2023/08/08 09:41:39;;;;;;;4.30;1.63;;;20.40;94.90;;;;;;4878962;29;20222;-90
2023/08/08 09:44:08;;;;;;;5.28;1.85;;;20.40;94.90;;;;;;4924518;29;20652;-90
2023/08/08 09:47:00;;;;;;;4.70;1.40;;;20.40;94.90;;;;;;4978679;28;20203;-87
2023/08/08 09:49:29;;;;;;;3.55;1.83;;;20.40;94.80;;;;;;4977197;28;20180;-90
2023/08/08 09:51:57;;;;;;;5.50;1.80;;;20.40;94.70;;;;;;5003612;28;20495;-89
2023/08/08 09:54:41;;;;;;;2.65;1.50;;;20.40;94.80;;;;;;5018806;28;20676;-89
2023/08/08 09:57:10;;;;;;;3.25;1.42;;;20.30;94.60;;;;;;5034942;28;20190;-89
2023/08/08 09:59:36;;;;;;;3.17;1.52;;;20.40;94.40;;;;;;5018496;28;20170;-88
2023/08/08 10:02:10;;;;;;;3.92;1.67;;;20.40;94.50;;;;;;5018531;28;20210;-89
2023/08/08 10:04:46;;;;;;;3.60;1.63;;;20.40;94.60;;;;;;4984953;28;20186;-89
2023/08/08 10:07:20;;;;;;;3.08;1.58;;;20.40;94.60;;;;;;5030397;28;20752;-89
2023/08/08 10:09:46;;;;;;;4.05;2.15;;;20.40;94.50;;;;;;5042834;28;20268;-89
2023/08/08 10:12:11;;;;;;;2.60;1.50;;;20.40;94.50;;;;;;5073659;28;20303;-87
2023/08/08 10:14:40;;;;;;;4.28;1.40;;;20.40;94.40;;;;;;5090218;28;20172;-88
2023/08/08 10:17:06;;;;;;;6.28;1.52;;;20.40;94.30;;;;;;5073435;28;20149;-88
2023/08/08 10:19:36;;;;;;;2.45;1.33;;;20.40;94.20;;;;;;5073713;28;20612;-89
2023/08/08 10:22:05;;;;;;;5.10;1.70;;;20.40;94.10;;;;;;5056620;28;20244;-87
2023/08/08 10:24:36;;;;;;;2.75;1.70;;;20.50;94.10;;;;;;5056656;28;20169;-89
2023/08/08 10:27:05;;;;;;;1.63;1.40;;;20.40;94.00;;;;;;5057080;28;20193;-88
2023/08/08 10:29:37;;;;;;;3.08;1.60;;;20.50;93.90;;;;;;5072754;28;20952;-89
2023/08/08 10:32:07;;;;;;;2.08;1.30;;;20.50;94.00;;;;;;5055561;28;20674;-89
2023/08/08 10:34:41;;;;;;;2.55;1.60;;;20.50;93.90;;;;;;5073053;28;20165;-88
2023/08/08 10:37:12;;;;;;;2.03;1.67;;;20.50;93.90;;;;;;5056203;28;20157;-88
2023/08/08 10:39:54;;;;;;;3.58;1.70;;;20.50;93.80;;;;;;5072416;28;20184;-89
2023/08/08 10:42:22;;;;;;;5.45;1.70;;;20.50;93.90;;;;;;5073984;28;20193;-89
2023/08/08 10:44:56;;;;;;;3.67;1.40;;;20.40;93.80;;;;;;5073280;28;20636;-87
2023/08/08 10:47:24;;;;;;;2.17;1.50;;;20.40;93.70;;;;;;5073793;28;20149;-88
2023/08/08 10:50:07;;;;;;;3.97;1.42;;;20.40;93.70;;;;;;5056830;28;20157;-88
2023/08/08 10:52:55;;;;;;;3.83;1.38;;;20.40;93.80;;;;;;5073029;28;20233;-88
2023/08/08 10:55:26;;;;;;;2.65;1.33;;;20.40;93.20;;;;;;5055633;28;20189;-87
2023/08/08 10:57:55;;;;;;;3.33;1.58;;;20.40;93.30;;;;;;5073802;28;20708;-86
2023/08/08 11:00:24;;;;;;;1.58;1.10;;;20.50;93.20;;;;;;5074345;28;20157;-87
2023/08/08 11:02:50;;;;;;;2.85;1.45;;;20.50;93.10;;;;;;5056226;28;20252;-86
2023/08/08 11:05:16;;;;;;;1.88;1.52;;;20.40;93.20;;;;;;5073069;28;20512;-90
2023/08/08 11:07:42;;;;;;;3.05;1.45;;;20.40;93.20;;;;;;5075305;28;20155;-85
2023/08/08 11:10:12;;;;;;;1.95;1.50;;;20.50;93.00;;;;;;5055936;28;20164;-86
2023/08/08 11:12:39;;;;;;;2.50;1.63;;;20.40;93.10;;;;;;5039626;28;20225;-86
2023/08/08 11:15:12;;;;;;;1.80;1.30;;;20.40;93.10;;;;;;5060666;28;20199;-87
2023/08/08 11:17:42;;;;;;;2.35;1.20;;;20.40;93.10;;;;;;5044031;28;20181;-88
2023/08/08 11:20:14;;;;;;;4.78;1.17;;;20.40;93.10;;;;;;5039709;28;20181;-86
2023/08/08 11:22:52;;;;;;;2.75;1.30;;;20.40;92.90;;;;;;5073087;28;20228;-85
2023/08/08 11:25:21;;;;;;;2.63;1.30;;;20.40;93.00;;;;;;5057323;28;20208;-88
2023/08/08 11:27:52;;;;;;;1.75;1.10;;;20.40;92.90;;;;;;5056899;28;20181;-87
2023/08/08 11:30:22;;;;;;;3.53;1.30;;;20.40;92.70;;;;;;5056380;28;20188;-86
2023/08/08 11:32:54;;;;;;;1.50;1.23;;;20.40;92.70;;;;;;5041892;28;20181;-86
2023/08/08 11:35:27;;;;;;;1.80;1.40;;;20.40;92.60;;;;;;5039274;28;20268;-89
2023/08/08 11:37:57;;;;;;;2.05;1.20;;;20.40;92.50;;;;;;5039088;28;20185;-90
2023/08/08 11:40:27;;;;;;;2.85;1.30;;;20.40;92.50;;;;;;5054911;28;20567;-86
2023/08/08 11:42:57;;;;;;;1.20;1.10;;;20.40;92.50;;;;;;5055648;28;20227;-86
2023/08/08 11:45:25;;;;;;;2.17;1.00;;;20.40;92.40;;;;;;5039869;28;20180;-85
2023/08/08 11:47:54;;;;;;;1.45;1.10;;;20.40;92.40;;;;;;5057066;28;20192;-89
2023/08/08 11:50:24;;;;;;;1.27;1.05;;;20.40;92.40;;;;;;5055797;28;20580;-87
2023/08/08 11:52:53;;;;;;;2.38;1.23;;;20.40;92.40;;;;;;5039287;28;20247;-90
2023/08/08 11:55:23;;;;;;;1.70;1.15;;;20.40;92.40;;;;;;5055711;28;20189;-86
2023/08/08 11:57:49;;;;;;;2.20;1.30;;;20.30;92.60;;;;;;5057080;28;20166;-86
2023/08/08 12:00:19;;;;;;;1.73;1.10;;;20.30;92.50;;;;;;5070763;28;20162;-85
2023/08/08 12:02:44;;;;;;;2.80;1.48;;;20.30;92.50;;;;;;5056346;28;20189;-89
2023/08/08 12:05:16;;;;;;;2.67;1.17;;;20.30;92.40;;;;;;5073464;28;20249;-87
2023/08/08 12:07:46;;;;;;;1.88;1.02;;;20.30;92.10;;;;;;5055559;28;20250;-88
2023/08/08 12:10:20;;;;;;;1.85;1.02;;;20.30;92.20;;;;;;5039294;28;20178;-88
2023/08/08 12:12:46;;;;;;;1.35;1.20;;;20.30;92.20;;;;;;5037950;28;20247;-90
2023/08/08 12:15:16;;;;;;;1.98;1.50;;;20.30;91.90;;;;;;5055554;28;20236;-90
2023/08/08 12:17:45;;;;;;;2.08;1.20;;;20.30;91.90;;;;;;5054116;28;20185;-86
2023/08/08 12:20:28;;;;;;;2.10;1.20;;;20.40;91.70;;;;;;5054263;28;20181;-89
2023/08/08 12:22:57;;;;;;;0.90;0.75;;;20.30;91.90;;;;;;5038130;28;20695;-89
2023/08/08 12:25:25;;;;;;;1.55;1.08;;;20.30;91.50;;;;;;5037340;28;20719;-86
2023/08/08 12:27:53;;;;;;;2.90;1.40;;;20.30;91.40;;;;;;5038715;28;20189;-86
2023/08/08 12:33:45;;;;;;;1.45;1.13;;;20.30;91.30;;;;;;5074573;28;20164;-86
2023/08/08 12:36:15;;;;;;;2.10;1.20;;;20.30;91.50;;;;;;5057910;28;20243;-89
2023/08/08 12:38:43;;;;;;;1.80;1.02;;;20.30;91.20;;;;;;5074473;28;20189;-88
2023/08/08 12:41:16;;;;;;;2.97;1.20;;;20.30;90.90;;;;;;5057365;28;20267;-86
2023/08/08 12:43:44;;;;;;;1.92;1.10;;;20.30;91.00;;;;;;5041194;28;20242;-90
2023/08/08 12:46:12;;;;;;;1.83;0.90;;;20.30;90.90;;;;;;5058623;28;20235;-87
2023/08/08 12:48:44;;;;;;;2.30;1.00;;;20.30;90.60;;;;;;5043330;28;20199;-87
2023/08/08 12:51:11;;;;;;;3.10;0.90;;;20.30;90.60;;;;;;5061953;28;20181;-88
2023/08/08 12:53:38;;;;;;;1.25;0.90;;;20.40;90.50;;;;;;5042674;28;20192;-88
2023/08/08 12:56:06;;;;;;;2.78;1.10;;;20.30;90.50;;;;;;5040840;28;20532;-90
2023/08/08 12:58:33;;;;;;;1.50;0.90;;;20.30;90.40;;;;;;5040600;28;20197;-87
2023/08/08 13:01:00;;;;;;;1.30;1.08;;;20.30;90.30;;;;;;5057095;28;20280;-89
2023/08/08 13:03:27;;;;;;;1.15;0.90;;;20.30;90.10;;;;;;5057071;28;20177;-89
2023/08/08 13:05:55;;;;;;;1.10;0.98;;;20.30;89.50;;;;;;5057022;28;20323;-87
2023/08/08 13:08:22;;;;;;;0.95;0.85;;;20.30;89.00;;;;;;5057303;28;20189;-87